Time;durP1;ratioP1;P1;durP2;ratioP2;P2;SDS_P1;SDS_P2;PMS_P1;PMS_P2;Temp;Humidity;BMP_temperature;BMP_pressure;BME280_temperature;BME280_humidity;BME280_pressure;Samples;Min_cycle;Max_cycle;Signal;HPM_P1;HPM_P2
2021/04/19 00:02:06;;;;;;;6.57;4.57;;;;;;;;;;5093388;28;20569;-18
2021/04/19 00:04:31;;;;;;;7.28;4.22;;;;;;;;;;5093187;28;20070;-18
2021/04/19 00:06:57;;;;;;;6.90;4.47;;;;;;;;;;5093291;28;20044;-17
2021/04/19 00:09:22;;;;;;;9.35;4.45;;;;;;;;;;5093453;28;20027;-18
2021/04/19 00:11:48;;;;;;;8.05;4.10;;;;;;;;;;5093123;28;20467;-17
2021/04/19 00:14:13;;;;;;;5.35;3.90;;;;;;;;;;5091896;28;20024;-17
2021/04/19 00:16:39;;;;;;;7.35;4.53;;;;;;;;;;5092868;28;20024;-18
2021/04/19 00:19:05;;;;;;;8.93;4.70;;;;;;;;;;5093359;28;20028;-18
2021/04/19 00:21:31;;;;;;;5.20;4.15;;;;;;;;;;5108626;28;20490;-18
2021/04/19 00:23:56;;;;;;;6.57;3.92;;;;;;;;;;5092995;28;20048;-18
2021/04/19 00:26:21;;;;;;;6.20;3.85;;;;;;;;;;5092874;28;20124;-18
2021/04/19 00:28:47;;;;;;;10.13;4.38;;;;;;;;;;5093044;28;20040;-17
2021/04/19 00:31:12;;;;;;;8.98;4.28;;;;;;;;;;5092835;28;20024;-17
2021/04/19 00:33:37;;;;;;;8.18;4.97;;;;;;;;;;5093089;28;20016;-18
2021/04/19 00:36:03;;;;;;;8.57;5.38;;;;;;;;;;5092827;28;20028;-18
2021/04/19 00:38:28;;;;;;;9.70;5.22;;;;;;;;;;5092577;28;20023;-18
2021/04/19 00:40:54;;;;;;;9.32;5.60;;;;;;;;;;5092707;28;20036;-18
2021/04/19 00:43:21;;;;;;;9.02;5.45;;;;;;;;;;5092968;28;20016;-18
2021/04/19 00:45:51;;;;;;;10.10;6.70;;;;;;;;;;5092837;28;20031;-18
2021/04/19 00:48:17;;;;;;;13.07;6.85;;;;;;;;;;5091225;28;20036;-18
2021/04/19 00:50:42;;;;;;;13.75;5.53;;;;;;;;;;5092513;28;20520;-17
2021/04/19 00:53:08;;;;;;;8.00;5.15;;;;;;;;;;5092509;28;20020;-18
2021/04/19 00:55:33;;;;;;;8.65;5.43;;;;;;;;;;5092473;28;20020;-17
2021/04/19 00:57:59;;;;;;;7.32;5.25;;;;;;;;;;5092607;28;20066;-17
2021/04/19 01:00:27;;;;;;;8.20;5.57;;;;;;;;;;5092596;28;20046;-17
2021/04/19 01:02:53;;;;;;;10.30;6.72;;;;;;;;;;5092538;28;20043;-17
2021/04/19 01:05:24;;;;;;;7.43;5.18;;;;;;;;;;5092722;28;20051;-17
2021/04/19 01:07:49;;;;;;;7.32;5.05;;;;;;;;;;5092259;28;20075;-17
2021/04/19 01:10:15;;;;;;;8.48;5.70;;;;;;;;;;5091151;28;20070;-17
2021/04/19 01:12:41;;;;;;;10.75;4.60;;;;;;;;;;5092282;28;20366;-17
2021/04/19 01:15:06;;;;;;;9.55;5.45;;;;;;;;;;5108090;28;20040;-17
2021/04/19 01:17:32;;;;;;;8.73;5.95;;;;;;;;;;5092274;28;20016;-17
2021/04/19 01:19:58;;;;;;;10.52;5.22;;;;;;;;;;5092292;28;20028;-17
2021/04/19 01:22:23;;;;;;;7.65;5.25;;;;;;;;;;5092301;28;20026;-17
2021/04/19 01:24:48;;;;;;;8.93;5.50;;;;;;;;;;5092031;28;20135;-17
2021/04/19 01:27:14;;;;;;;6.97;4.60;;;;;;;;;;5092241;28;20394;-17
2021/04/19 01:29:39;;;;;;;8.02;5.60;;;;;;;;;;5094808;28;20024;-17
2021/04/19 01:32:05;;;;;;;7.80;5.25;;;;;;;;;;5095057;28;20377;-17
2021/04/19 01:34:31;;;;;;;11.85;5.32;;;;;;;;;;5094892;28;20024;-18
2021/04/19 01:36:57;;;;;;;12.60;5.88;;;;;;;;;;5094829;28;20478;-17
2021/04/19 01:39:22;;;;;;;13.02;5.80;;;;;;;;;;5096118;28;20034;-17
2021/04/19 01:41:48;;;;;;;7.28;5.43;;;;;;;;;;5094677;28;20012;-17
2021/04/19 01:44:15;;;;;;;8.23;5.75;;;;;;;;;;5111958;28;20036;-17
2021/04/19 01:46:41;;;;;;;9.73;6.30;;;;;;;;;;5094525;28;20020;-17
2021/04/19 01:49:12;;;;;;;11.18;6.35;;;;;;;;;;5111539;28;20040;-17
2021/04/19 01:51:37;;;;;;;14.18;6.57;;;;;;;;;;5096175;28;20032;-17
2021/04/19 01:54:03;;;;;;;11.02;6.65;;;;;;;;;;5095853;28;20471;-18
2021/04/19 01:56:28;;;;;;;10.00;6.15;;;;;;;;;;5095974;28;20064;-18
2021/04/19 01:58:56;;;;;;;12.82;7.32;;;;;;;;;;5096050;28;20020;-18
2021/04/19 02:01:22;;;;;;;14.18;6.55;;;;;;;;;;5095991;28;20020;-17
2021/04/19 02:04:03;;;;;;;12.35;7.25;;;;;;;;;;5095613;28;20379;-18
2021/04/19 02:06:40;;;;;;;12.30;7.47;;;;;;;;;;5094231;28;20047;-18
2021/04/19 02:09:09;;;;;;;11.45;6.60;;;;;;;;;;5094272;28;20024;-18
2021/04/19 02:11:41;;;;;;;12.65;7.32;;;;;;;;;;5094102;28;20020;-18
2021/04/19 02:14:11;;;;;;;11.35;7.20;;;;;;;;;;5094198;28;20142;-18
2021/04/19 02:16:45;;;;;;;9.82;6.43;;;;;;;;;;5094077;28;20047;-18
2021/04/19 02:19:18;;;;;;;10.52;6.47;;;;;;;;;;5111048;28;20484;-18
2021/04/19 02:21:50;;;;;;;11.48;6.88;;;;;;;;;;5093984;28;20503;-18
2021/04/19 02:24:18;;;;;;;8.45;6.22;;;;;;;;;;5110861;28;20127;-18
2021/04/19 02:26:46;;;;;;;8.32;6.15;;;;;;;;;;5094950;28;20025;-18
2021/04/19 02:29:14;;;;;;;10.63;5.70;;;;;;;;;;5093863;28;20123;-18
2021/04/19 02:31:43;;;;;;;7.70;5.22;;;;;;;;;;5093668;28;20061;-18
2021/04/19 02:34:12;;;;;;;9.60;5.50;;;;;;;;;;5110828;28;20028;-18
2021/04/19 02:36:41;;;;;;;9.23;5.85;;;;;;;;;;5095226;28;20020;-17
2021/04/19 02:39:07;;;;;;;7.40;5.35;;;;;;;;;;5093511;28;20020;-17
2021/04/19 02:41:35;;;;;;;9.48;5.97;;;;;;;;;;5093523;28;20020;-18
2021/04/19 02:44:00;;;;;;;9.15;5.97;;;;;;;;;;5094985;28;20042;-18
2021/04/19 02:46:52;;;;;;;9.05;5.63;;;;;;;;;;5094479;28;20024;-18
2021/04/19 02:49:37;;;;;;;10.05;5.95;;;;;;;;;;5110469;28;20035;-18
2021/04/19 02:52:05;;;;;;;10.82;5.95;;;;;;;;;;5094784;28;20028;-17
2021/04/19 02:54:32;;;;;;;10.55;5.88;;;;;;;;;;5093268;28;20023;-18
2021/04/19 02:56:58;;;;;;;13.48;6.25;;;;;;;;;;5093899;28;20031;-18
2021/04/19 02:59:25;;;;;;;10.30;5.47;;;;;;;;;;5093269;28;20020;-18
2021/04/19 03:01:55;;;;;;;9.18;5.43;;;;;;;;;;5093032;28;20024;-18
2021/04/19 03:04:23;;;;;;;9.00;5.93;;;;;;;;;;5094184;28;20486;-17
2021/04/19 03:07:09;;;;;;;12.00;6.20;;;;;;;;;;5094665;28;20093;-18
2021/04/19 03:09:40;;;;;;;7.85;5.78;;;;;;;;;;5092901;28;20025;-18
2021/04/19 03:12:06;;;;;;;10.18;5.20;;;;;;;;;;5094740;28;20111;-18
2021/04/19 03:15:08;;;;;;;10.57;6.15;;;;;;;;;;5092859;28;20436;-18
2021/04/19 03:17:37;;;;;;;11.88;6.65;;;;;;;;;;5091673;28;20047;-18
2021/04/19 03:20:14;;;;;;;8.25;5.72;;;;;;;;;;5094315;28;20024;-17
2021/04/19 03:22:50;;;;;;;10.10;6.35;;;;;;;;;;5092675;28;20043;-18
2021/04/19 03:25:18;;;;;;;9.55;5.53;;;;;;;;;;5093940;28;20437;-19
2021/04/19 03:27:47;;;;;;;7.97;4.85;;;;;;;;;;5092629;28;20082;-18
2021/04/19 03:30:14;;;;;;;8.25;5.45;;;;;;;;;;5109680;28;20059;-18
2021/04/19 03:32:48;;;;;;;9.25;5.35;;;;;;;;;;5092626;28;20391;-18
2021/04/19 03:35:15;;;;;;;9.90;6.00;;;;;;;;;;5094208;28;20086;-18
2021/04/19 03:37:44;;;;;;;9.90;5.68;;;;;;;;;;5092350;28;20110;-18
2021/04/19 03:40:13;;;;;;;7.22;5.18;;;;;;;;;;5092470;28;20387;-18
2021/04/19 03:42:40;;;;;;;11.25;6.13;;;;;;;;;;5092459;28;20050;-18
2021/04/19 03:45:13;;;;;;;7.82;5.43;;;;;;;;;;5109396;28;20551;-18
2021/04/19 03:47:57;;;;;;;5.65;4.53;;;;;;;;;;5092732;28;20046;-18
2021/04/19 03:50:41;;;;;;;9.77;5.00;;;;;;;;;;5091781;28;20024;-17
2021/04/19 03:53:07;;;;;;;8.88;5.45;;;;;;;;;;5093653;28;20266;-17
2021/04/19 03:55:33;;;;;;;9.90;5.07;;;;;;;;;;5093747;28;20015;-18
2021/04/19 03:57:59;;;;;;;8.70;5.00;;;;;;;;;;5109060;28;20058;-18
2021/04/19 04:00:34;;;;;;;10.52;5.68;;;;;;;;;;5092366;28;20020;-17
2021/04/19 04:03:18;;;;;;;7.72;5.68;;;;;;;;;;5109194;28;20060;-16
2021/04/19 04:06:04;;;;;;;11.50;6.40;;;;;;;;;;5092073;28;20510;-18
2021/04/19 04:08:33;;;;;;;10.00;5.90;;;;;;;;;;5108334;28;20387;-20
2021/04/19 04:11:00;;;;;;;9.10;6.03;;;;;;;;;;5091983;28;20020;-19
2021/04/19 04:13:26;;;;;;;10.65;5.53;;;;;;;;;;5093380;28;20028;-18
2021/04/19 04:15:55;;;;;;;9.63;5.97;;;;;;;;;;5091725;28;20016;-18
2021/04/19 04:18:21;;;;;;;9.20;5.93;;;;;;;;;;5108660;28;20058;-18
2021/04/19 04:20:49;;;;;;;9.98;5.80;;;;;;;;;;5091643;28;20036;-18
2021/04/19 04:23:19;;;;;;;12.35;5.80;;;;;;;;;;5091573;28;20044;-18
2021/04/19 04:25:45;;;;;;;11.38;6.10;;;;;;;;;;5093156;28;20071;-18
2021/04/19 04:28:14;;;;;;;11.73;6.03;;;;;;;;;;5092841;28;20067;-18
2021/04/19 04:30:53;;;;;;;10.43;6.63;;;;;;;;;;5091557;28;20043;-18
2021/04/19 04:33:25;;;;;;;14.10;5.97;;;;;;;;;;5091614;28;20028;-18
2021/04/19 04:36:02;;;;;;;11.30;5.22;;;;;;;;;;5091658;28;20028;-18
2021/04/19 04:38:32;;;;;;;11.43;6.82;;;;;;;;;;5092706;28;20061;-18
2021/04/19 04:41:00;;;;;;;8.82;5.97;;;;;;;;;;5091402;28;20035;-18
2021/04/19 04:43:28;;;;;;;9.68;5.68;;;;;;;;;;5092762;28;20020;-18
2021/04/19 04:45:54;;;;;;;9.13;5.38;;;;;;;;;;5092869;28;20019;-18
2021/04/19 04:48:20;;;;;;;9.98;5.97;;;;;;;;;;5092831;28;20130;-18
2021/04/19 04:50:49;;;;;;;9.43;5.97;;;;;;;;;;5092591;28;20056;-18
2021/04/19 04:53:17;;;;;;;8.93;5.35;;;;;;;;;;5092872;28;20463;-18
2021/04/19 04:55:42;;;;;;;8.85;5.57;;;;;;;;;;5092507;28;20024;-18
2021/04/19 04:58:08;;;;;;;8.82;5.53;;;;;;;;;;5092784;28;20105;-18
2021/04/19 05:00:34;;;;;;;10.63;6.28;;;;;;;;;;5092783;28;20360;-18
2021/04/19 05:03:00;;;;;;;8.77;5.18;;;;;;;;;;5090383;28;20390;-21
2021/04/19 05:05:26;;;;;;;9.55;5.45;;;;;;;;;;5092437;28;20024;-17
2021/04/19 05:07:52;;;;;;;7.47;5.45;;;;;;;;;;5092532;28;20501;-18
2021/04/19 05:10:19;;;;;;;10.27;6.10;;;;;;;;;;5091070;28;20041;-22
2021/04/19 05:12:44;;;;;;;8.77;6.22;;;;;;;;;;5092386;28;20032;-18
2021/04/19 05:15:13;;;;;;;7.80;5.00;;;;;;;;;;5092413;28;20020;-18
2021/04/19 05:17:47;;;;;;;9.00;5.50;;;;;;;;;;5092503;28;20026;-18
2021/04/19 05:20:14;;;;;;;8.32;5.20;;;;;;;;;;5091079;28;20035;-18
2021/04/19 05:22:43;;;;;;;9.45;6.10;;;;;;;;;;5090982;28;20024;-18
2021/04/19 05:25:09;;;;;;;8.95;5.10;;;;;;;;;;5092151;28;20403;-18
2021/04/19 05:27:35;;;;;;;8.00;5.05;;;;;;;;;;5092099;28;20036;-18
2021/04/19 05:30:00;;;;;;;7.85;5.40;;;;;;;;;;5092472;28;20039;-18
2021/04/19 05:32:26;;;;;;;8.25;5.38;;;;;;;;;;5092603;28;20518;-18
2021/04/19 05:34:52;;;;;;;9.65;5.57;;;;;;;;;;5092165;28;20518;-18
2021/04/19 05:37:18;;;;;;;8.65;5.65;;;;;;;;;;5092051;28;20058;-17
2021/04/19 05:39:44;;;;;;;7.13;4.88;;;;;;;;;;5092130;28;20059;-18
2021/04/19 05:42:11;;;;;;;9.02;5.30;;;;;;;;;;5092121;28;20024;-18
2021/04/19 05:44:37;;;;;;;9.93;5.55;;;;;;;;;;5092292;28;20067;-18
2021/04/19 05:47:02;;;;;;;8.55;4.75;;;;;;;;;;5092060;28;20055;-18
2021/04/19 05:49:28;;;;;;;8.48;6.00;;;;;;;;;;5091961;28;20040;-18
2021/04/19 05:51:56;;;;;;;11.07;6.38;;;;;;;;;;5092006;28;20069;-18
2021/04/19 05:54:22;;;;;;;9.13;6.03;;;;;;;;;;5091980;28;20475;-17
2021/04/19 05:56:59;;;;;;;10.18;5.15;;;;;;;;;;5092218;28;20034;-18
2021/04/19 05:59:32;;;;;;;12.60;6.00;;;;;;;;;;5091851;28;20039;-18
2021/04/19 06:01:57;;;;;;;;;;;;;;;;;;5092254;28;20403;-19
2021/04/19 06:04:29;;;;;;;7.03;4.20;;;;;;;;;;5091981;28;19911;-17
2021/04/19 06:06:59;;;;;;;5.78;4.13;;;;;;;;;;5091757;28;20111;-17
2021/04/19 06:09:40;;;;;;;8.82;6.00;;;;;;;;;;5090470;28;20502;-17
2021/04/19 06:12:45;;;;;;;10.70;5.65;;;;;;;;;;5084189;28;20119;-17
2021/04/19 06:15:13;;;;;;;9.75;5.57;;;;;;;;;;5094149;28;20116;-17
2021/04/19 06:17:42;;;;;;;7.95;5.18;;;;;;;;;;5094078;28;20020;-17
2021/04/19 06:20:08;;;;;;;8.82;5.53;;;;;;;;;;5095429;28;20024;-17
2021/04/19 06:22:34;;;;;;;9.48;4.93;;;;;;;;;;5095238;28;20048;-17
2021/04/19 06:25:00;;;;;;;8.73;4.95;;;;;;;;;;5093835;28;20149;-17
2021/04/19 06:27:25;;;;;;;6.63;4.68;;;;;;;;;;5095225;28;20173;-17
2021/04/19 06:29:51;;;;;;;12.63;7.28;;;;;;;;;;5095108;28;20051;-17
2021/04/19 06:32:17;;;;;;;11.68;6.10;;;;;;;;;;5095226;28;20024;-17
2021/04/19 06:34:43;;;;;;;15.35;9.23;;;;;;;;;;5095272;28;20077;-17
2021/04/19 06:37:09;;;;;;;18.60;9.65;;;;;;;;;;5110714;28;20383;-18
2021/04/19 06:39:35;;;;;;;9.70;5.97;;;;;;;;;;5094958;28;20044;-17
2021/04/19 06:42:02;;;;;;;9.45;5.82;;;;;;;;;;5095213;28;20028;-17
2021/04/19 06:44:28;;;;;;;10.00;5.13;;;;;;;;;;5095301;28;20413;-17
2021/04/19 06:46:55;;;;;;;8.15;4.78;;;;;;;;;;5095061;28;20024;-17
2021/04/19 06:49:20;;;;;;;7.90;5.22;;;;;;;;;;5095017;28;20452;-17
2021/04/19 06:51:46;;;;;;;7.78;5.13;;;;;;;;;;5093488;28;20051;-18
2021/04/19 06:54:12;;;;;;;10.98;5.85;;;;;;;;;;5093486;28;20036;-18
2021/04/19 06:56:38;;;;;;;8.25;5.65;;;;;;;;;;5094538;28;20024;-18
2021/04/19 06:59:05;;;;;;;8.13;5.07;;;;;;;;;;5094733;28;20024;-17
2021/04/19 07:01:31;;;;;;;10.40;5.40;;;;;;;;;;5094557;28;20028;-18
2021/04/19 07:03:58;;;;;;;8.55;4.63;;;;;;;;;;5094518;28;20024;-19
2021/04/19 07:06:27;;;;;;;8.85;5.00;;;;;;;;;;5094466;28;20020;-18
2021/04/19 07:09:01;;;;;;;20.48;7.70;;;;;;;;;;5094369;28;20059;-18
2021/04/19 07:11:28;;;;;;;8.50;6.15;;;;;;;;;;5094421;28;20024;-18
2021/04/19 07:13:54;;;;;;;9.48;5.63;;;;;;;;;;5094316;28;20069;-17
2021/04/19 07:16:19;;;;;;;9.77;6.57;;;;;;;;;;5094338;28;20459;-18
2021/04/19 07:18:44;;;;;;;8.50;4.47;;;;;;;;;;5092802;28;20107;-18
2021/04/19 07:21:10;;;;;;;7.22;4.57;;;;;;;;;;5109960;28;20421;-18
2021/04/19 07:23:36;;;;;;;9.43;5.30;;;;;;;;;;5093855;28;20040;-17
2021/04/19 07:26:06;;;;;;;9.18;4.80;;;;;;;;;;5093617;28;20032;-17
2021/04/19 07:28:36;;;;;;;7.80;5.45;;;;;;;;;;5093960;28;20048;-17
2021/04/19 07:31:02;;;;;;;8.55;5.18;;;;;;;;;;5094025;28;20508;-17
2021/04/19 07:33:29;;;;;;;9.82;5.55;;;;;;;;;;5094051;28;20020;-17
2021/04/19 07:35:54;;;;;;;7.68;4.80;;;;;;;;;;5094213;28;20020;-17
2021/04/19 07:38:32;;;;;;;5.60;4.57;;;;;;;;;;5093773;28;20379;-17
2021/04/19 07:40:58;;;;;;;7.88;5.47;;;;;;;;;;5093920;28;20119;-18
2021/04/19 07:43:24;;;;;;;7.03;5.20;;;;;;;;;;5094084;28;20105;-18
2021/04/19 07:45:59;;;;;;;8.48;5.25;;;;;;;;;;5093897;28;20028;-18
2021/04/19 07:48:28;;;;;;;8.30;5.40;;;;;;;;;;5093948;28;20063;-17
2021/04/19 07:50:53;;;;;;;7.82;5.47;;;;;;;;;;5093597;28;20016;-17
2021/04/19 07:53:20;;;;;;;8.38;4.75;;;;;;;;;;5093466;28;20058;-17
2021/04/19 07:55:49;;;;;;;6.72;3.97;;;;;;;;;;5093522;28;20383;-17
2021/04/19 07:58:22;;;;;;;7.75;4.93;;;;;;;;;;5109198;28;20375;-17
2021/04/19 08:00:50;;;;;;;9.93;4.38;;;;;;;;;;4809718;27;10000665;-17
2021/04/19 08:03:17;;;;;;;7.00;4.45;;;;;;;;;;5089393;28;20230;-17
2021/04/19 08:05:44;;;;;;;9.07;5.43;;;;;;;;;;5089789;28;20034;-18
2021/04/19 08:08:10;;;;;;;9.43;5.82;;;;;;;;;;5089474;28;20559;-18
2021/04/19 08:10:38;;;;;;;8.95;4.75;;;;;;;;;;5089998;28;20035;-19
2021/04/19 08:13:06;;;;;;;7.00;4.53;;;;;;;;;;5089497;28;20024;-23
2021/04/19 08:15:32;;;;;;;11.10;4.95;;;;;;;;;;5105265;28;20118;-19
2021/04/19 08:17:59;;;;;;;8.07;4.57;;;;;;;;;;5088230;28;20103;-17
2021/04/19 08:20:25;;;;;;;6.03;4.25;;;;;;;;;;5089645;28;20040;-17
2021/04/19 08:22:51;;;;;;;9.63;4.85;;;;;;;;;;5089526;28;20028;-16
2021/04/19 08:25:21;;;;;;;6.85;4.70;;;;;;;;;;5087871;28;20079;-17
2021/04/19 08:28:06;;;;;;;6.65;4.82;;;;;;;;;;5087778;28;20131;-20
2021/04/19 08:30:32;;;;;;;6.88;4.53;;;;;;;;;;5089544;28;20040;-18
2021/04/19 08:32:58;;;;;;;7.43;4.88;;;;;;;;;;5089799;28;20035;-17
2021/04/19 08:35:24;;;;;;;6.88;4.65;;;;;;;;;;5089917;28;20114;-17
2021/04/19 08:37:49;;;;;;;7.80;5.13;;;;;;;;;;5089273;28;20466;-17
2021/04/19 08:40:15;;;;;;;8.90;5.70;;;;;;;;;;5089723;28;20497;-18
2021/04/19 08:42:41;;;;;;;6.22;4.63;;;;;;;;;;5089623;28;20111;-17
2021/04/19 08:45:07;;;;;;;6.30;4.22;;;;;;;;;;5087908;28;20127;-17
2021/04/19 08:47:33;;;;;;;10.93;5.13;;;;;;;;;;5089173;28;20050;-17
2021/04/19 08:50:00;;;;;;;7.47;4.18;;;;;;;;;;5088967;28;20024;-17
2021/04/19 08:52:26;;;;;;;7.82;4.85;;;;;;;;;;5105116;28;20024;-18
2021/04/19 08:54:51;;;;;;;8.57;4.35;;;;;;;;;;5088897;28;20035;-17
2021/04/19 08:57:17;;;;;;;5.90;3.78;;;;;;;;;;5089545;28;20057;-18
2021/04/19 08:59:43;;;;;;;6.05;3.67;;;;;;;;;;5089027;28;20030;-18
2021/04/19 09:02:09;;;;;;;5.72;3.90;;;;;;;;;;5088744;28;20077;-17
2021/04/19 09:04:35;;;;;;;6.72;4.45;;;;;;;;;;5088814;28;20387;-20
2021/04/19 09:07:02;;;;;;;7.75;3.88;;;;;;;;;;5089141;28;20039;-18
2021/04/19 09:09:31;;;;;;;9.07;3.38;;;;;;;;;;5089191;28;20027;-17
2021/04/19 09:11:56;;;;;;;4.53;3.60;;;;;;;;;;5088953;28;20062;-17
2021/04/19 09:14:32;;;;;;;5.72;3.70;;;;;;;;;;5088802;28;20028;-17
2021/04/19 09:16:58;;;;;;;5.38;3.55;;;;;;;;;;5089148;28;20111;-17
2021/04/19 09:19:25;;;;;;;3.50;2.67;;;;;;;;;;5088981;28;20119;-17
2021/04/19 09:21:51;;;;;;;3.78;2.33;;;;;;;;;;5087872;28;20032;-17
2021/04/19 09:24:18;;;;;;;3.88;2.17;;;;;;;;;;5089029;28;20530;-16
2021/04/19 09:26:44;;;;;;;2.58;1.98;;;;;;;;;;5088892;28;20028;-17
2021/04/19 09:29:10;;;;;;;1.85;1.60;;;;;;;;;;5089108;28;20032;-17
2021/04/19 09:31:54;;;;;;;1.65;1.05;;;;;;;;;;5089137;28;20462;-17
2021/04/19 09:34:20;;;;;;;2.10;1.13;;;;;;;;;;5088516;28;20032;-17
2021/04/19 09:36:49;;;;;;;2.85;1.83;;;;;;;;;;5088292;28;20069;-17
2021/04/19 09:39:34;;;;;;;2.47;1.55;;;;;;;;;;5088883;28;20028;-17
2021/04/19 09:41:59;;;;;;;2.15;1.58;;;;;;;;;;5088766;28;20701;-17
2021/04/19 09:44:26;;;;;;;4.18;1.70;;;;;;;;;;5088403;28;20024;-17
2021/04/19 09:46:52;;;;;;;2.03;1.67;;;;;;;;;;5088625;28;20029;-17
2021/04/19 09:49:20;;;;;;;1.90;1.50;;;;;;;;;;5090930;28;20097;-17
2021/04/19 09:51:45;;;;;;;1.65;1.42;;;;;;;;;;5092500;28;20024;-17
2021/04/19 09:54:15;;;;;;;3.25;2.00;;;;;;;;;;5091188;28;20085;-17
2021/04/19 09:56:45;;;;;;;1.52;1.42;;;;;;;;;;5090563;28;20474;-21
2021/04/19 09:59:17;;;;;;;1.60;1.30;;;;;;;;;;5092296;28;20028;-17
2021/04/19 10:01:45;;;;;;;2.20;1.20;;;;;;;;;;5092207;28;20028;-17
2021/04/19 10:04:10;;;;;;;2.30;1.40;;;;;;;;;;5091986;28;20020;-17
2021/04/19 10:06:38;;;;;;;1.67;1.40;;;;;;;;;;5091467;28;20024;-16
2021/04/19 10:09:06;;;;;;;1.48;0.95;;;;;;;;;;5092082;28;20012;-18
2021/04/19 10:11:33;;;;;;;1.83;1.20;;;;;;;;;;5091941;28;20089;-18
2021/04/19 10:14:05;;;;;;;1.77;1.38;;;;;;;;;;5089992;28;20023;-18
2021/04/19 10:16:40;;;;;;;1.50;1.20;;;;;;;;;;5091490;28;20057;-18
2021/04/19 10:19:05;;;;;;;1.33;1.00;;;;;;;;;;5092135;28;20092;-19
2021/04/19 10:21:31;;;;;;;2.70;1.60;;;;;;;;;;5095445;28;20530;-18
2021/04/19 10:23:57;;;;;;;2.53;1.52;;;;;;;;;;5095289;28;20044;-18
2021/04/19 10:26:33;;;;;;;1.48;1.23;;;;;;;;;;5095633;28;20094;-18
2021/04/19 10:29:07;;;;;;;1.23;1.10;;;;;;;;;;5095200;28;20040;-18
2021/04/19 10:31:32;;;;;;;1.25;1.15;;;;;;;;;;5095489;28;20416;-19
2021/04/19 10:33:58;;;;;;;1.35;1.02;;;;;;;;;;5095158;28;20030;-18
2021/04/19 10:36:24;;;;;;;1.13;0.95;;;;;;;;;;5110929;28;20055;-18
2021/04/19 10:38:53;;;;;;;1.88;1.20;;;;;;;;;;5095119;28;20039;-18
2021/04/19 10:41:48;;;;;;;2.22;1.33;;;;;;;;;;5095045;28;20028;-18
2021/04/19 10:44:15;;;;;;;2.20;1.33;;;;;;;;;;5089987;28;20119;-18
2021/04/19 10:46:42;;;;;;;1.60;1.15;;;;;;;;;;5095080;28;20355;-18
2021/04/19 10:49:08;;;;;;;2.10;1.17;;;;;;;;;;5095138;28;20406;-18
2021/04/19 10:51:35;;;;;;;1.35;1.10;;;;;;;;;;5094619;28;20070;-18
2021/04/19 10:54:10;;;;;;;1.40;1.00;;;;;;;;;;5094924;28;20024;-18
2021/04/19 10:56:39;;;;;;;1.65;1.17;;;;;;;;;;5094836;28;20048;-18
2021/04/19 10:59:08;;;;;;;1.10;1.00;;;;;;;;;;5094104;28;20087;-17
2021/04/19 11:01:35;;;;;;;1.52;0.93;;;;;;;;;;5094452;28;20099;-18
2021/04/19 11:04:01;;;;;;;1.20;1.00;;;;;;;;;;5094570;28;20095;-18
2021/04/19 11:06:27;;;;;;;2.05;0.95;;;;;;;;;;5094896;28;20383;-18
2021/04/19 11:08:59;;;;;;;1.33;1.00;;;;;;;;;;5094302;28;20028;-17
2021/04/19 11:11:27;;;;;;;2.15;1.00;;;;;;;;;;5093230;28;20028;-19
2021/04/19 11:13:53;;;;;;;1.10;1.00;;;;;;;;;;5094306;28;20115;-17
2021/04/19 11:16:22;;;;;;;1.10;0.82;;;;;;;;;;5093083;28;20024;-17
2021/04/19 11:18:48;;;;;;;1.23;0.95;;;;;;;;;;5094456;28;20032;-18
2021/04/19 11:21:27;;;;;;;0.93;0.65;;;;;;;;;;5094617;28;20024;-18
2021/04/19 11:24:15;;;;;;;1.42;0.95;;;;;;;;;;5093927;28;20040;-17
2021/04/19 11:26:41;;;;;;;0.80;0.80;;;;;;;;;;5093953;28;20063;-18
2021/04/19 11:29:06;;;;;;;1.17;0.95;;;;;;;;;;5093752;28;20047;-18
2021/04/19 11:31:43;;;;;;;1.27;0.90;;;;;;;;;;5094114;28;20417;-18
2021/04/19 11:34:10;;;;;;;1.30;1.13;;;;;;;;;;4737842;28;9999709;-18
2021/04/19 11:36:41;;;;;;;1.42;1.27;;;;;;;;;;5090464;28;20020;-18
2021/04/19 11:39:13;;;;;;;0.90;0.90;;;;;;;;;;5090662;28;20032;-18
2021/04/19 11:41:40;;;;;;;1.63;1.20;;;;;;;;;;5090479;28;20036;-18
2021/04/19 11:44:06;;;;;;;0.85;0.82;;;;;;;;;;5089760;28;20012;-19
2021/04/19 11:46:32;;;;;;;3.08;1.40;;;;;;;;;;5090192;28;20097;-18
2021/04/19 11:48:58;;;;;;;0.63;0.63;;;;;;;;;;5090050;28;20032;-17
2021/04/19 11:51:25;;;;;;;1.00;0.88;;;;;;;;;;5090829;28;20024;-18
2021/04/19 11:53:50;;;;;;;0.77;0.70;;;;;;;;;;5090247;28;20073;-17
2021/04/19 11:56:17;;;;;;;1.08;0.73;;;;;;;;;;5090327;28;20416;-17
2021/04/19 11:58:44;;;;;;;1.30;0.70;;;;;;;;;;5090539;28;20039;-17
2021/04/19 12:01:10;;;;;;;1.20;1.00;;;;;;;;;;5090459;28;20097;-17
2021/04/19 12:03:39;;;;;;;1.00;0.85;;;;;;;;;;5090134;28;20020;-18
2021/04/19 12:06:06;;;;;;;3.67;1.50;;;;;;;;;;5089956;28;20035;-18
2021/04/19 12:08:32;;;;;;;2.55;1.55;;;;;;;;;;5089434;28;20024;-17
2021/04/19 12:10:59;;;;;;;2.63;1.80;;;;;;;;;;5089385;28;20085;-20
2021/04/19 12:13:24;;;;;;;2.78;1.40;;;;;;;;;;5090200;28;20466;-19
2021/04/19 12:15:52;;;;;;;3.03;1.23;;;;;;;;;;5090023;28;20020;-17
2021/04/19 12:18:18;;;;;;;1.95;1.42;;;;;;;;;;5105677;28;20023;-17
2021/04/19 12:20:43;;;;;;;2.45;1.48;;;;;;;;;;5089135;28;20053;-17
2021/04/19 12:23:09;;;;;;;2.60;1.40;;;;;;;;;;5089582;28;20020;-18
2021/04/19 12:25:34;;;;;;;2.47;1.60;;;;;;;;;;5089827;28;20039;-17
2021/04/19 12:28:00;;;;;;;3.17;2.17;;;;;;;;;;5089353;28;20032;-17
2021/04/19 12:30:29;;;;;;;1.38;1.25;;;;;;;;;;5089725;28;20028;-17
2021/04/19 12:32:55;;;;;;;1.83;1.67;;;;;;;;;;5087187;28;20028;-17
2021/04/19 12:35:21;;;;;;;1.83;1.60;;;;;;;;;;5089413;28;20031;-17
2021/04/19 12:37:47;;;;;;;2.80;2.20;;;;;;;;;;5088991;28;20015;-17
2021/04/19 12:40:12;;;;;;;3.45;2.05;;;;;;;;;;5089243;28;20467;-17
2021/04/19 12:42:38;;;;;;;2.08;1.88;;;;;;;;;;5089531;28;20063;-17
2021/04/19 12:45:04;;;;;;;2.33;1.83;;;;;;;;;;5104370;28;20020;-17
2021/04/19 12:47:29;;;;;;;3.03;2.70;;;;;;;;;;5088742;28;20028;-17
2021/04/19 12:49:54;;;;;;;4.03;2.53;;;;;;;;;;5088184;28;20474;-17
2021/04/19 12:52:20;;;;;;;2.67;1.98;;;;;;;;;;5089154;28;20028;-17
2021/04/19 12:54:45;;;;;;;2.13;1.63;;;;;;;;;;5088834;28;20395;-17
2021/04/19 12:57:11;;;;;;;1.88;1.13;;;;;;;;;;5088424;28;20020;-17
2021/04/19 12:59:37;;;;;;;1.52;1.05;;;;;;;;;;5088977;28;20028;-18
2021/04/19 13:02:02;;;;;;;2.42;1.65;;;;;;;;;;5088992;28;20020;-21
2021/04/19 13:04:28;;;;;;;1.95;1.35;;;;;;;;;;5088859;28;20530;-17
2021/04/19 13:06:53;;;;;;;3.33;2.47;;;;;;;;;;5088672;28;20024;-19
2021/04/19 13:09:19;;;;;;;2.53;1.63;;;;;;;;;;5088295;28;20032;-18
2021/04/19 13:11:44;;;;;;;2.83;2.33;;;;;;;;;;5089069;28;20115;-19
2021/04/19 13:14:10;;;;;;;3.45;2.20;;;;;;;;;;5086970;28;20120;-19
2021/04/19 13:16:35;;;;;;;3.28;1.65;;;;;;;;;;5089099;28;20486;-19
2021/04/19 13:19:01;;;;;;;2.58;1.45;;;;;;;;;;5088597;28;20455;-19
2021/04/19 13:21:27;;;;;;;2.25;1.52;;;;;;;;;;5088400;28;20012;-17
2021/04/19 13:23:53;;;;;;;5.60;2.30;;;;;;;;;;5091214;28;20082;-19
2021/04/19 13:26:18;;;;;;;3.88;2.65;;;;;;;;;;5091824;28;20066;-17
2021/04/19 13:28:44;;;;;;;3.08;2.20;;;;;;;;;;5092788;28;20390;-18
2021/04/19 13:31:09;;;;;;;2.40;1.75;;;;;;;;;;5092985;28;20031;-18
2021/04/19 13:33:35;;;;;;;2.88;1.63;;;;;;;;;;5092501;28;20043;-17
2021/04/19 13:36:00;;;;;;;1.88;1.65;;;;;;;;;;5092845;28;20050;-17
2021/04/19 13:38:26;;;;;;;3.78;1.85;;;;;;;;;;5092998;28;20050;-17
2021/04/19 13:40:52;;;;;;;2.80;1.20;;;;;;;;;;5092718;28;20035;-18
2021/04/19 13:43:18;;;;;;;2.30;1.67;;;;;;;;;;5093236;28;20032;-17
2021/04/19 13:45:43;;;;;;;2.35;1.02;;;;;;;;;;5090925;28;20046;-17
2021/04/19 13:48:09;;;;;;;1.77;1.48;;;;;;;;;;5092905;28;20044;-22
2021/04/19 13:50:35;;;;;;;1.95;1.40;;;;;;;;;;5091449;28;20016;-17
2021/04/19 13:53:00;;;;;;;2.45;1.63;;;;;;;;;;5092618;28;20520;-18
2021/04/19 13:55:26;;;;;;;1.75;1.35;;;;;;;;;;5092424;28;20027;-17
2021/04/19 13:57:52;;;;;;;2.60;1.10;;;;;;;;;;5091992;28;20101;-20
2021/04/19 14:00:18;;;;;;;3.22;1.95;;;;;;;;;;5092598;28;20024;-18
2021/04/19 14:02:45;;;;;;;2.65;1.65;;;;;;;;;;5092192;28;20031;-17
2021/04/19 14:05:10;;;;;;;1.92;1.38;;;;;;;;;;5092782;28;20020;-18
2021/04/19 14:07:36;;;;;;;1.55;0.93;;;;;;;;;;5092919;28;20402;-17
2021/04/19 14:10:03;;;;;;;1.08;0.75;;;;;;;;;;5092440;28;20385;-18
2021/04/19 14:12:29;;;;;;;2.80;2.30;;;;;;;;;;5092359;28;20036;-17
2021/04/19 14:14:54;;;;;;;3.08;2.03;;;;;;;;;;5091040;28;20027;-18
2021/04/19 14:17:20;;;;;;;1.95;1.60;;;;;;;;;;5092046;28;20089;-19
2021/04/19 14:19:45;;;;;;;6.00;1.00;;;;;;;;;;5092115;28;20538;-18
2021/04/19 14:22:11;;;;;;;2.10;1.38;;;;;;;;;;5092024;28;20486;-17
2021/04/19 14:24:37;;;;;;;0.32;0.32;;;;;;;;;;5091991;28;20083;-18
2021/04/19 14:27:06;;;;;;;2.53;1.70;;;;;;;;;;5091696;28;20024;-17
2021/04/19 14:29:32;;;;;;;2.42;1.17;;;;;;;;;;5092285;28;20471;-17
2021/04/19 14:31:58;;;;;;;2.30;1.88;;;;;;;;;;5091609;28;20043;-17
2021/04/19 14:34:23;;;;;;;3.30;2.38;;;;;;;;;;5090330;28;20020;-17
2021/04/19 14:36:49;;;;;;;6.03;1.30;;;;;;;;;;5091759;28;20038;-17
2021/04/19 14:39:14;;;;;;;2.05;1.33;;;;;;;;;;5091702;28;20386;-17
2021/04/19 14:41:40;;;;;;;1.70;1.13;;;;;;;;;;5107357;28;20366;-18
2021/04/19 14:44:05;;;;;;;2.83;1.48;;;;;;;;;;5091340;28;20055;-18
2021/04/19 14:46:31;;;;;;;1.35;0.77;;;;;;;;;;5091645;28;20075;-18